Terminal Aerodrome Forecast
Issued by NWS

Home | Current Version | Previous Version | Text Only | Print | Product List | Glossary On
Versions: 1 2 3 4 5 6 7 8 9 10 11 12 13 14 15 16 17 18 19 20
000
FTUS43 KJKL 151100 AAA
TAFSME
TAF AMD
KSME 151153Z 1512/1612 33009G15KT 1SM -SN BR OVC008
      TEMPO 1512/1514 BKN004 OVC008
     FM151700 30010G24KT P6SM SCT010 OVC016
     FM152000 30010G18KT P6SM SCT018 OVC035
     FM152300 VRB04KT P6SM BKN040
     FM160300 VRB03KT P6SM SKC=

USA.gov is the U.S. government's official web portal to all federal, state and local government web resources and services.